Time;durP1;ratioP1;P1;durP2;ratioP2;P2;SDS_P1;SDS_P2;PMS_P1;PMS_P2;Temp;Humidity;BMP_temperature;BMP_pressure;BME280_temperature;BME280_humidity;BME280_pressure;Samples;Min_cycle;Max_cycle;Signal;HPM_P1;HPM_P2
2022/10/12 00:00:28;;;;;;;3.92;3.72;;;;;;;3.90;100.00;102069.94;6070820;23;20038;-71
2022/10/12 00:02:54;;;;;;;4.22;3.95;;;;;;;3.87;100.00;102074.25;6086318;23;20030;-70
2022/10/12 00:05:21;;;;;;;5.43;3.75;;;;;;;3.84;100.00;102080.34;6078310;23;20037;-70
2022/10/12 00:07:47;;;;;;;3.95;3.75;;;;;;;3.53;100.00;102027.63;6042815;23;20082;-70
2022/10/12 00:10:14;;;;;;;4.03;3.83;;;;;;;3.33;100.00;102010.34;6072657;23;20034;-71
2022/10/12 00:12:40;;;;;;;4.28;3.95;;;;;;;3.72;100.00;102081.22;6018887;23;20253;-69
2022/10/12 00:15:07;;;;;;;4.50;4.25;;;;;;;3.37;100.00;102024.19;6046113;23;20038;-70
2022/10/12 00:17:33;;;;;;;4.07;3.88;;;;;;;3.66;100.00;102075.19;6041013;23;20018;-70
2022/10/12 00:20:00;;;;;;;3.55;3.35;;;;;;;3.37;100.00;102042.34;6070559;23;20207;-71
2022/10/12 00:22:26;;;;;;;3.95;3.75;;;;;;;3.63;100.00;102072.56;6069959;23;20018;-71
2022/10/12 00:24:53;;;;;;;3.67;3.47;;;;;;;3.05;100.00;101988.75;6071296;23;20041;-71
2022/10/12 00:27:19;;;;;;;3.90;3.70;;;;;;;3.44;100.00;102050.97;6078895;23;20031;-71
2022/10/12 00:29:46;;;;;;;4.00;3.80;;;;;;;3.15;100.00;102019.00;6047516;23;20096;-71
2022/10/12 00:32:12;;;;;;;4.18;3.90;;;;;;;3.15;100.00;102016.41;6077133;23;20021;-71
2022/10/12 00:34:38;;;;;;;3.55;3.42;;;;;;;3.14;100.00;102024.19;6014906;23;20038;-71
2022/10/12 00:37:05;;;;;;;3.65;3.50;;;;;;;3.38;100.00;102067.41;6052115;23;20026;-71
2022/10/12 00:39:31;;;;;;;4.10;3.80;;;;;;;3.17;100.00;102035.44;6025141;23;20517;-71
2022/10/12 00:41:57;;;;;;;4.40;4.10;;;;;;;3.35;100.00;102090.78;6023023;23;20110;-71
2022/10/12 00:44:48;;;;;;;3.95;3.75;;;;;;;3.23;100.00;102051.84;6069676;23;20030;-70
2022/10/12 00:47:18;;;;;;;3.65;3.45;;;;;;;3.36;100.00;102067.41;6072976;23;20037;-71
2022/10/12 00:49:49;;;;;;;3.65;3.45;;;;;;;3.40;100.00;102071.72;6043138;23;20022;-71
2022/10/12 00:52:20;;;;;;;3.22;3.13;;;;;;;3.44;100.00;102067.41;6068745;23;20010;-71
2022/10/12 00:54:49;;;;;;;4.70;4.32;;;;;;;3.29;100.00;102034.56;6017928;23;20779;-71
2022/10/12 00:57:17;;;;;;;4.10;3.80;;;;;;;3.55;100.00;102057.03;6036133;23;20010;-71
2022/10/12 01:00:01;;;;;;;3.40;3.20;;;;;;;3.59;100.00;102051.81;6076673;23;20029;-70
2022/10/12 01:02:30;;;;;;;3.65;3.45;;;;;;;3.49;100.00;102024.16;6064691;23;20038;-71
2022/10/12 01:04:57;;;;;;;3.85;3.65;;;;;;;3.72;100.00;102055.25;6078563;23;20014;-71
2022/10/12 01:07:24;;;;;;;3.60;3.45;;;;;;;3.62;100.00;102035.38;6047852;23;20085;-71
2022/10/12 01:09:50;;;;;;;3.47;3.25;;;;;;;3.68;100.00;102032.75;6053227;23;20021;-72
2022/10/12 01:12:18;;;;;;;3.85;3.53;;;;;;;3.80;100.00;102034.47;6076064;23;20017;-71
2022/10/12 01:14:44;;;;;;;3.78;3.58;;;;;;;3.87;100.00;102049.19;6068104;23;20074;-71
2022/10/12 01:17:48;;;;;;;3.88;3.67;;;;;;;3.86;100.00;102051.78;6075974;23;20443;-71
2022/10/12 01:20:33;;;;;;;3.83;3.63;;;;;;;3.86;100.00;102052.63;6068277;23;20030;-71
2022/10/12 01:23:24;;;;;;;3.40;3.30;;;;;;;3.88;100.00;102050.91;6078185;23;20018;-71
2022/10/12 01:26:05;;;;;;;3.22;3.13;;;;;;;3.88;100.00;102055.22;6044508;23;20083;-71
2022/10/12 01:28:34;;;;;;;5.15;3.70;;;;;;;3.89;100.00;102052.63;6052805;23;20029;-71
2022/10/12 01:31:13;;;;;;;4.22;3.83;;;;;;;3.91;100.00;102048.31;6048304;23;20049;-71
2022/10/12 01:33:47;;;;;;;3.80;3.50;;;;;;;3.86;100.00;102046.59;6080352;23;20079;-71
2022/10/12 01:36:17;;;;;;;3.83;3.63;;;;;;;3.91;100.00;102042.22;6042261;23;20076;-71
2022/10/12 01:39:03;;;;;;;3.95;3.65;;;;;;;3.45;100.00;101964.47;6040763;23;20106;-71
2022/10/12 01:41:38;;;;;;;3.63;3.42;;;;;;;3.98;100.00;102033.56;6060605;23;20089;-71
2022/10/12 01:44:04;;;;;;;6.72;3.45;;;;;;;3.99;100.00;102028.38;6062764;23;20009;-71
2022/10/12 01:46:30;;;;;;;4.57;4.32;;;;;;;3.98;100.00;102033.56;6067118;23;20563;-71
2022/10/12 01:48:59;;;;;;;3.53;3.35;;;;;;;3.84;100.00;102006.78;6072765;23;20684;-71
2022/10/12 01:51:39;;;;;;;4.43;3.75;;;;;;;3.55;100.00;101956.66;6068574;23;20018;-71
2022/10/12 01:54:24;;;;;;;4.38;4.15;;;;;;;3.99;100.00;102017.97;6064777;23;20010;-71
2022/10/12 01:57:03;;;;;;;3.85;3.65;;;;;;;2.86;100.00;101828.84;6060910;23;20655;-71
2022/10/12 01:59:59;;;;;;;4.00;3.72;;;;;;;3.93;100.00;102005.00;6064064;23;20018;-71
2022/10/12 02:02:49;;;;;;;3.33;3.22;;;;;;;3.99;100.00;102012.78;6076055;23;20112;-71
2022/10/12 02:05:18;;;;;;;4.75;4.30;;;;;;;3.98;100.00;102013.63;6069031;23;20091;-71
2022/10/12 02:07:50;;;;;;;3.40;3.22;;;;;;;3.63;100.00;101955.75;6055008;23;20037;-71
2022/10/12 02:10:49;;;;;;;3.55;3.45;;;;;;;3.99;100.00;102010.19;6064220;23;20021;-71
2022/10/12 02:13:19;;;;;;;4.47;4.20;;;;;;;3.75;100.00;101973.91;6019919;23;20065;-71
2022/10/12 02:15:47;;;;;;;4.13;3.90;;;;;;;4.03;100.00;102015.34;6081872;23;20524;-71
2022/10/12 02:18:17;;;;;;;3.58;3.38;;;;;;;4.04;100.00;102014.50;6063928;23;20064;-71
2022/10/12 02:20:49;;;;;;;4.60;4.30;;;;;;;3.79;100.00;101962.66;6051829;23;20034;-72
2022/10/12 02:23:17;;;;;;;4.22;3.92;;;;;;;3.71;100.00;101948.81;6049664;23;20030;-71
2022/10/12 02:25:45;;;;;;;4.13;3.80;;;;;;;4.06;100.00;102011.00;6045810;23;20026;-71
2022/10/12 02:28:15;;;;;;;5.88;4.15;;;;;;;4.06;100.00;102007.56;6076936;23;20014;-71
2022/10/12 02:31:03;;;;;;;4.28;3.88;;;;;;;4.07;100.00;102004.06;6078359;23;20025;-70
2022/10/12 02:33:55;;;;;;;4.63;4.43;;;;;;;3.95;100.00;101979.91;6075478;23;20038;-70
2022/10/12 02:36:33;;;;;;;3.22;3.13;;;;;;;4.06;100.00;101991.97;6066966;23;20085;-71
2022/10/12 02:39:07;;;;;;;3.92;3.72;;;;;;;3.96;100.00;101971.22;6037760;23;20034;-71
2022/10/12 02:41:40;;;;;;;4.95;3.67;;;;;;;4.05;100.00;101988.53;6050268;23;20023;-71
2022/10/12 02:44:11;;;;;;;3.75;3.55;;;;;;;4.03;100.00;101982.47;6072438;23;20017;-71
2022/10/12 02:46:40;;;;;;;3.70;3.50;;;;;;;3.86;100.00;101947.91;6037093;23;20019;-71
2022/10/12 02:49:07;;;;;;;4.57;4.28;;;;;;;3.49;100.00;101896.09;6060610;23;20088;-71
2022/10/12 02:51:34;;;;;;;4.32;4.03;;;;;;;3.40;100.00;101876.25;6019971;23;20076;-71
2022/10/12 02:54:02;;;;;;;4.00;3.80;;;;;;;3.84;100.00;101947.91;6048140;23;20083;-71
2022/10/12 02:56:28;;;;;;;3.50;3.30;;;;;;;3.94;100.00;101962.56;6076394;23;20108;-71
2022/10/12 02:58:55;;;;;;;3.90;3.67;;;;;;;3.59;100.00;101900.41;6033234;23;20026;-71
2022/10/12 03:01:21;;;;;;;3.45;3.25;;;;;;;3.77;100.00;101936.69;6071256;23;20021;-71
2022/10/12 03:03:47;;;;;;;3.45;3.35;;;;;;;3.58;100.00;101899.53;6064470;23;20030;-72
2022/10/12 03:06:18;;;;;;;3.75;3.55;;;;;;;3.87;100.00;101947.00;6079826;23;20037;-71
2022/10/12 03:08:45;;;;;;;17.17;3.70;;;;;;;3.47;100.00;101890.06;6048442;23;20023;-70
2022/10/12 03:11:12;;;;;;;4.03;3.83;;;;;;;3.51;100.00;101900.44;6048559;23;20026;-70
2022/10/12 03:13:39;;;;;;;3.53;3.33;;;;;;;3.82;100.00;101954.84;6055108;23;20631;-70
2022/10/12 03:16:08;;;;;;;3.45;3.35;;;;;;;3.79;100.00;101957.47;6075954;23;20017;-70
2022/10/12 03:18:35;;;;;;;3.83;3.63;;;;;;;3.77;100.00;101954.00;6043898;23;20026;-70
2022/10/12 03:21:02;;;;;;;3.65;3.35;;;;;;;3.59;100.00;101937.63;6082643;23;20021;-70
2022/10/12 03:23:30;;;;;;;5.07;4.57;;;;;;;3.69;100.00;101948.84;6082720;23;20104;-70
2022/10/12 03:25:57;;;;;;;4.10;3.90;;;;;;;3.16;100.00;101872.00;6076691;23;20018;-70
2022/10/12 03:28:23;;;;;;;3.75;3.55;;;;;;;3.08;100.00;101869.41;6051282;23;20033;-70
2022/10/12 03:30:50;;;;;;;7.63;4.13;;;;;;;3.62;100.00;101947.13;6073862;23;20101;-70
2022/10/12 03:33:16;;;;;;;4.53;4.25;;;;;;;3.18;100.00;101884.09;6071623;23;20026;-70
2022/10/12 03:35:44;;;;;;;3.92;3.72;;;;;;;3.37;100.00;101904.81;6051409;23;20025;-70
2022/10/12 03:38:11;;;;;;;3.72;3.53;;;;;;;3.24;100.00;101879.75;6037639;23;20030;-70
2022/10/12 03:40:38;;;;;;;3.55;3.38;;;;;;;3.34;100.00;101891.84;6025827;23;20049;-70
2022/10/12 03:43:04;;;;;;;4.10;3.90;;;;;;;3.10;100.00;101859.91;6076922;23;20092;-70
2022/10/12 03:45:31;;;;;;;4.28;4.07;;;;;;;3.56;100.00;101945.41;6062800;23;20006;-71
2022/10/12 03:47:57;;;;;;;3.60;3.40;;;;;;;3.41;100.00;101929.91;6074766;23;20023;-70
2022/10/12 03:50:32;;;;;;;3.35;3.22;;;;;;;2.91;100.00;101860.84;6074495;23;20029;-70
2022/10/12 03:52:58;;;;;;;3.20;3.10;;;;;;;3.23;100.00;101929.91;6069462;23;20027;-72
2022/10/12 03:55:27;;;;;;;3.95;3.65;;;;;;;3.05;100.00;101910.94;6068917;23;20080;-72
2022/10/12 03:57:53;;;;;;;3.70;3.50;;;;;;;3.10;100.00;101936.84;6065731;23;20102;-70
2022/10/12 04:00:20;;;;;;;3.58;3.38;;;;;;;3.03;100.00;101935.13;6046988;23;20674;-70
2022/10/12 04:02:46;;;;;;;3.80;3.60;;;;;;;2.97;100.00;101934.28;6044699;23;20030;-70
2022/10/12 04:05:13;;;;;;;4.65;4.35;;;;;;;2.68;100.00;101890.22;6070126;23;20030;-72
2022/10/12 04:07:39;;;;;;;6.32;5.40;;;;;;;2.97;100.00;101933.44;6071972;23;20034;-70
2022/10/12 04:10:06;;;;;;;6.70;6.20;;;;;;;2.87;100.00;101901.44;6082715;23;20009;-69
2022/10/12 04:12:33;;;;;;;5.80;5.10;;;;;;;3.18;100.00;101942.91;6041061;23;20496;-70
2022/10/12 04:14:59;;;;;;;4.63;4.30;;;;;;;2.74;100.00;101866.03;6074286;23;20084;-70
2022/10/12 04:17:25;;;;;;;7.13;3.75;;;;;;;3.18;100.00;101941.16;6042471;23;20078;-70
2022/10/12 04:19:52;;;;;;;3.88;3.65;;;;;;;3.16;100.00;101936.84;6050993;23;20034;-69
2022/10/12 04:22:18;;;;;;;4.28;3.97;;;;;;;3.11;100.00;101939.47;6081090;23;20022;-70
2022/10/12 04:24:45;;;;;;;3.83;3.63;;;;;;;2.78;100.00;101885.88;6070219;23;20022;-70
2022/10/12 04:27:11;;;;;;;3.47;3.20;;;;;;;3.09;100.00;101938.59;6076499;23;20010;-70
2022/10/12 04:29:38;;;;;;;6.38;5.78;;;;;;;3.09;100.00;101941.19;6069474;23;20689;-71
2022/10/12 04:32:04;;;;;;;4.10;3.90;;;;;;;3.10;100.00;101937.72;6050725;23;20034;-70
2022/10/12 04:34:37;;;;;;;3.70;3.50;;;;;;;3.10;100.00;101942.91;6083886;23;20041;-70
2022/10/12 04:37:03;;;;;;;4.05;3.72;;;;;;;3.16;100.00;101932.50;6047281;23;20027;-70
2022/10/12 04:39:30;;;;;;;5.22;4.75;;;;;;;3.21;100.00;101929.94;6046322;23;20515;-70
2022/10/12 04:41:56;;;;;;;3.70;3.42;;;;;;;3.19;100.00;101929.06;6048260;23;20010;-70
2022/10/12 04:44:23;;;;;;;3.88;3.67;;;;;;;3.31;100.00;101928.19;6069475;23;20666;-70
2022/10/12 04:46:55;;;;;;;4.22;3.92;;;;;;;3.32;100.00;101915.19;6047194;23;20037;-70
2022/10/12 04:49:21;;;;;;;4.80;4.40;;;;;;;3.33;100.00;101903.09;6064435;23;20022;-71
2022/10/12 04:51:47;;;;;;;4.90;4.47;;;;;;;3.51;100.00;101921.22;6044532;23;20039;-70
2022/10/12 04:54:14;;;;;;;10.68;5.43;;;;;;;3.55;100.00;101922.06;6062559;23;20577;-70
2022/10/12 04:56:40;;;;;;;5.13;4.72;;;;;;;3.31;100.00;101876.31;6050739;23;20088;-71
2022/10/12 04:59:13;;;;;;;4.65;4.45;;;;;;;3.65;100.00;101923.75;6078581;23;20014;-71
2022/10/12 05:01:39;;;;;;;4.30;3.97;;;;;;;3.66;100.00;101933.25;6078264;23;20092;-71
2022/10/12 05:04:05;;;;;;;8.40;5.20;;;;;;;2.76;100.00;101771.81;6053263;23;20073;-70
2022/10/12 05:06:32;;;;;;;4.45;3.95;;;;;;;3.66;100.00;101919.41;6084902;23;20705;-71
2022/10/12 05:08:58;;;;;;;4.47;4.18;;;;;;;3.66;100.00;101914.22;6048120;23;20025;-71
2022/10/12 05:11:24;;;;;;;3.95;3.65;;;;;;;3.68;100.00;101909.91;6067127;23;20042;-71
2022/10/12 05:13:51;;;;;;;4.75;4.32;;;;;;;3.32;100.00;101847.72;6069082;23;20035;-71
2022/10/12 05:16:17;;;;;;;4.00;3.80;;;;;;;3.65;100.00;101902.09;6069819;23;20029;-72
2022/10/12 05:18:43;;;;;;;4.45;4.07;;;;;;;3.63;100.00;101899.53;6074163;23;20037;-70
2022/10/12 05:21:10;;;;;;;3.88;3.53;;;;;;;3.63;100.00;101906.44;6074422;23;20087;-71
2022/10/12 05:23:36;;;;;;;6.18;3.90;;;;;;;3.31;100.00;101858.13;6068174;23;20015;-70
2022/10/12 05:26:03;;;;;;;3.97;3.78;;;;;;;3.60;100.00;101915.09;6033261;23;20077;-70
2022/10/12 05:28:29;;;;;;;3.47;3.30;;;;;;;3.56;100.00;101909.06;6057193;23;20557;-71
2022/10/12 05:30:56;;;;;;;3.63;3.42;;;;;;;3.53;100.00;101903.91;6075112;23;20068;-71
2022/10/12 05:33:22;;;;;;;3.63;3.40;;;;;;;3.30;100.00;101890.97;6041927;23;20598;-70
2022/10/12 05:35:49;;;;;;;3.58;3.38;;;;;;;3.49;100.00;101911.69;6066826;23;20010;-70
2022/10/12 05:38:21;;;;;;;4.22;3.92;;;;;;;3.31;100.00;101889.28;6041547;23;20101;-70
2022/10/12 05:40:48;;;;;;;3.92;3.72;;;;;;;3.44;100.00;101901.31;6067287;23;20549;-70
2022/10/12 05:43:14;;;;;;;6.13;5.55;;;;;;;3.40;100.00;101903.06;6017744;23;20068;-70
2022/10/12 05:45:41;;;;;;;4.68;4.38;;;;;;;3.04;100.00;101846.94;6065210;23;20504;-71
2022/10/12 05:48:08;;;;;;;4.72;4.43;;;;;;;3.23;100.00;101889.28;6021490;23;20027;-70
2022/10/12 05:50:34;;;;;;;4.93;4.63;;;;;;;3.18;100.00;101884.09;6040013;23;20037;-71
2022/10/12 05:53:00;;;;;;;3.90;3.70;;;;;;;3.33;100.00;101916.06;6077582;23;20029;-71
2022/10/12 05:55:27;;;;;;;3.20;3.00;;;;;;;2.77;100.00;101834.94;6070566;23;20034;-70
2022/10/12 05:57:53;;;;;;;3.63;3.42;;;;;;;2.99;100.00;101875.50;6068844;23;20051;-71
2022/10/12 06:00:20;;;;;;;7.70;4.28;;;;;;;2.68;100.00;101827.16;6069975;23;20034;-71
2022/10/12 06:02:47;;;;;;;9.15;3.92;;;;;;;2.83;100.00;101859.94;6050636;23;20022;-71
2022/10/12 06:05:13;;;;;;;3.35;3.25;;;;;;;3.19;100.00;101914.38;6072233;23;20460;-69
2022/10/12 06:07:40;;;;;;;6.75;4.03;;;;;;;2.63;100.00;101823.72;6042107;23;20023;-69
2022/10/12 06:10:07;;;;;;;5.90;3.70;;;;;;;3.31;100.00;101917.81;6072411;23;20018;-68
2022/10/12 06:12:33;;;;;;;3.30;3.20;;;;;;;3.42;100.00;101912.59;6036898;23;20133;-68
2022/10/12 06:14:59;;;;;;;3.35;3.15;;;;;;;3.47;100.00;101911.72;6067337;23;20014;-68
2022/10/12 06:17:26;;;;;;;3.53;3.38;;;;;;;3.43;100.00;101909.09;6044852;23;20109;-68
2022/10/12 06:19:52;;;;;;;8.38;3.17;;;;;;;3.30;100.00;101903.09;6044228;23;20604;-68
2022/10/12 06:22:18;;;;;;;20.13;3.90;;;;;;;3.06;100.00;101865.09;6057208;23;20088;-68
2022/10/12 06:24:45;;;;;;;3.63;3.38;;;;;;;3.33;100.00;101911.75;6072120;23;20045;-68
2022/10/12 06:27:12;;;;;;;4.00;3.72;;;;;;;3.18;100.00;101896.19;6042690;23;20029;-72
2022/10/12 06:29:39;;;;;;;3.80;3.60;;;;;;;3.31;100.00;101899.66;6063048;23;20022;-68
2022/10/12 06:32:05;;;;;;;3.50;3.30;;;;;;;3.27;100.00;101913.47;6029036;23;20023;-68
2022/10/12 06:34:31;;;;;;;3.40;3.30;;;;;;;2.98;100.00;101842.63;6026918;23;20669;-69
2022/10/12 06:36:58;;;;;;;4.18;3.97;;;;;;;3.46;100.00;101920.34;6016506;23;20026;-69
2022/10/12 06:39:27;;;;;;;4.03;3.72;;;;;;;3.04;100.00;101840.91;6029532;23;20671;-68
2022/10/12 06:41:53;;;;;;;3.67;3.40;;;;;;;3.45;100.00;101904.78;6035427;23;20023;-69
2022/10/12 06:44:21;;;;;;;3.80;3.60;;;;;;;3.67;100.00;101921.13;6032033;23;20534;-69
2022/10/12 06:46:48;;;;;;;3.75;3.55;;;;;;;3.55;100.00;101890.91;6056125;23;20066;-70
2022/10/12 06:49:16;;;;;;;3.30;3.20;;;;;;;3.49;100.00;101872.75;6034693;23;20015;-69
2022/10/12 06:51:42;;;;;;;3.35;3.25;;;;;;;3.75;100.00;101907.28;6055423;23;20116;-69
2022/10/12 06:54:08;;;;;;;4.25;4.05;;;;;;;3.84;100.00;101906.34;6031082;23;20733;-69
2022/10/12 06:56:37;;;;;;;3.40;3.30;;;;;;;4.05;100.00;101912.31;6070419;23;20511;-69
2022/10/12 06:59:03;;;;;;;3.80;3.60;;;;;;;4.20;100.00;101927.81;6047617;23;20026;-69
2022/10/12 07:01:29;;;;;;;3.30;3.20;;;;;;;4.29;100.00;101913.88;6059650;23;20072;-69
2022/10/12 07:03:56;;;;;;;4.05;3.85;;;;;;;4.40;100.00;101915.53;6034980;23;20094;-69
2022/10/12 07:06:26;;;;;;;4.32;4.03;;;;;;;4.49;100.00;101900.75;6014730;23;20089;-69
2022/10/12 07:08:53;;;;;;;3.67;3.50;;;;;;;4.66;100.00;101909.28;6054900;23;20501;-69
2022/10/12 07:11:20;;;;;;;4.22;3.92;;;;;;;4.43;100.00;101844.50;6035921;23;20120;-69
2022/10/12 07:13:46;;;;;;;4.60;4.20;;;;;;;4.89;100.00;101903.91;6068207;23;20025;-69
2022/10/12 07:16:12;;;;;;;4.00;3.80;;;;;;;4.98;100.00;101906.41;6044180;23;20030;-69
2022/10/12 07:18:39;;;;;;;4.50;4.20;;;;;;;4.79;100.00;101855.41;6036098;23;20277;-69
2022/10/12 07:21:05;;;;;;;3.45;3.35;;;;;;;5.15;100.00;101900.16;6058031;23;20015;-69
2022/10/12 07:23:33;;;;;;;5.00;4.60;;;;;;;5.31;100.00;101891.34;6020652;23;20716;-69
2022/10/12 07:26:00;;;;;;;3.85;3.65;;;;;;;5.10;100.00;101834.31;6043052;23;20065;-69
2022/10/12 07:28:26;;;;;;;4.40;4.13;;;;;;;5.18;100.00;101843.75;6064843;23;20038;-69
2022/10/12 07:30:53;;;;;;;3.83;3.58;;;;;;;5.67;100.00;101893.50;6070496;23;20026;-69
2022/10/12 07:33:19;;;;;;;3.50;3.40;;;;;;;5.82;100.00;101882.03;6079089;23;20087;-69
2022/10/12 07:35:53;;;;;;;4.00;3.80;;;;;;;6.04;100.00;101904.34;6069579;23;20151;-69
2022/10/12 07:38:38;;;;;;;3.70;3.50;;;;;;;5.70;100.00;101826.63;6036084;23;20019;-69
2022/10/12 07:41:04;;;;;;;4.00;3.75;;;;;;;5.73;100.00;101805.75;6066338;23;20027;-70
2022/10/12 07:43:32;;;;;;;3.65;3.45;;;;;;;6.41;100.00;101903.78;6040041;23;20023;-69
2022/10/12 07:45:58;;;;;;;3.85;3.65;;;;;;;6.34;100.00;101876.09;6060710;23;20084;-69
2022/10/12 07:48:25;;;;;;;3.97;3.78;;;;;;;6.63;100.00;101906.91;6038195;23;20039;-69
2022/10/12 07:50:51;;;;;;;4.20;4.00;;;;;;;6.74;100.00;101899.78;6066864;23;20084;-69
2022/10/12 07:53:17;;;;;;;4.82;4.45;;;;;;;6.57;100.00;101847.03;6074175;23;20124;-69
2022/10/12 07:55:44;;;;;;;4.72;4.43;;;;;;;6.97;100.00;101903.75;6047202;23;20022;-69
2022/10/12 07:58:11;;;;;;;4.97;4.40;;;;;;;7.04;100.00;101907.13;6019825;23;20026;-69
2022/10/12 08:00:38;;;;;;;4.20;3.90;;;;;;;7.20;100.00;101905.94;6048092;23;20049;-69
2022/10/12 08:03:05;;;;;;;4.35;4.05;;;;;;;6.91;100.00;101854.28;6078066;23;20034;-69
2022/10/12 08:05:31;;;;;;;4.03;3.83;;;;;;;7.50;100.00;101911.47;6076843;23;20107;-69
2022/10/12 08:07:59;;;;;;;4.13;3.90;;;;;;;7.38;100.00;101870.78;6072960;23;20018;-69
2022/10/12 08:10:25;;;;;;;4.05;3.85;;;;;;;7.46;100.00;101866.25;6033513;23;20030;-69
2022/10/12 08:12:51;;;;;;;4.20;3.95;;;;;;;6.97;100.00;101755.84;6023936;23;20074;-70
2022/10/12 08:15:18;;;;;;;4.50;4.20;;;;;;;7.73;100.00;101856.13;6016236;23;20078;-69
2022/10/12 08:17:44;;;;;;;5.53;5.13;;;;;;;8.09;100.00;101891.03;6026307;23;20027;-69
2022/10/12 08:20:11;;;;;;;4.38;4.10;;;;;;;8.05;100.00;101875.47;6025206;23;20033;-69
2022/10/12 08:22:37;;;;;;;5.00;4.60;;;;;;;8.51;100.00;101911.03;6021901;23;20027;-68
2022/10/12 08:25:04;;;;;;;10.85;4.93;;;;;;;8.42;100.00;101885.97;6032709;23;20539;-68
2022/10/12 08:27:30;;;;;;;4.50;4.20;;;;;;;8.73;100.00;101900.91;6020865;23;20088;-68
2022/10/12 08:29:57;;;;;;;4.35;4.15;;;;;;;8.33;100.00;101839.06;6031643;23;20027;-68
2022/10/12 08:32:24;;;;;;;8.23;4.53;;;;;;;8.72;100.00;101880.84;6049745;23;20477;-70
2022/10/12 08:34:50;;;;;;;17.45;5.32;;;;;;;8.66;100.00;101860.06;6032351;23;20036;-68
2022/10/12 08:37:17;;;;;;;5.18;4.78;;;;;;;8.58;100.00;101828.88;6032280;23;20044;-68
2022/10/12 08:39:43;;;;;;;5.47;4.95;;;;;;;8.85;100.00;101866.53;6008149;23;20216;-68
2022/10/12 08:42:09;;;;;;;7.55;5.25;;;;;;;9.05;100.00;101897.44;6051381;23;20018;-69
2022/10/12 08:44:44;;;;;;;4.55;4.15;;;;;;;9.06;100.00;101893.94;6070983;23;20437;-67
2022/10/12 08:47:17;;;;;;;7.85;5.88;;;;;;;9.11;100.00;101893.81;6031006;23;20088;-68
2022/10/12 08:49:44;;;;;;;4.75;4.45;;;;;;;9.18;100.00;101890.97;6055751;23;20025;-68
2022/10/12 08:52:27;;;;;;;14.40;4.70;;;;;;;9.02;100.00;101845.16;6031990;23;20202;-68
2022/10/12 08:54:58;;;;;;;5.05;4.75;;;;;;;9.36;100.00;101886.13;6077291;23;20586;-70
2022/10/12 08:57:24;;;;;;;4.82;4.53;;;;;;;8.95;100.00;101823.50;6071016;23;20018;-68
2022/10/12 08:59:50;;;;;;;4.93;4.43;;;;;;;9.35;100.00;101847.75;6074109;23;20484;-70
2022/10/12 09:02:20;;;;;;;5.35;4.97;;;;;;;9.86;100.00;101888.19;6039733;23;20084;-68
2022/10/12 09:05:00;;;;;;;10.98;5.32;;;;;;;10.17;100.00;101891.59;6068213;23;20068;-68
2022/10/12 09:07:35;;;;;;;4.82;4.47;;;;;;;10.33;100.00;101855.25;6031719;23;20056;-68
2022/10/12 09:10:09;;;;;;;5.63;5.28;;;;;;;10.65;99.04;101873.47;6072890;23;20036;-68
2022/10/12 09:13:04;;;;;;;5.20;4.80;;;;;;;11.03;99.92;101895.81;6071497;23;20088;-69
2022/10/12 09:15:34;;;;;;;7.35;4.72;;;;;;;10.97;96.20;101891.59;6074065;23;20523;-68
2022/10/12 09:18:04;;;;;;;5.68;5.18;;;;;;;11.03;96.78;101889.69;6033829;23;20023;-68
2022/10/12 09:20:38;;;;;;;4.90;4.60;;;;;;;11.03;96.67;101895.81;6070940;23;20016;-69
2022/10/12 09:23:23;;;;;;;7.78;5.78;;;;;;;11.08;97.88;101891.22;6041694;23;20019;-70
2022/10/12 09:25:53;;;;;;;5.20;4.80;;;;;;;10.85;97.90;101857.03;6071962;23;20033;-69
2022/10/12 09:28:40;;;;;;;5.80;5.38;;;;;;;11.00;96.88;101874.88;6048192;23;20258;-69
2022/10/12 09:31:34;;;;;;;4.97;4.68;;;;;;;11.08;96.44;101899.09;6057061;23;20076;-70
2022/10/12 09:34:04;;;;;;;5.40;4.95;;;;;;;10.96;96.27;101873.28;6046712;23;20026;-69
2022/10/12 09:36:35;;;;;;;6.93;5.75;;;;;;;10.73;97.35;101832.91;6070941;23;20501;-70
2022/10/12 09:39:04;;;;;;;5.20;4.90;;;;;;;10.89;98.05;101829.75;6074183;23;20574;-69
2022/10/12 09:41:38;;;;;;;5.95;5.47;;;;;;;11.57;97.82;101913.13;6041129;23;20018;-69
2022/10/12 09:44:05;;;;;;;5.32;5.03;;;;;;;11.25;95.10;101790.78;6072750;23;20459;-69
2022/10/12 09:46:44;;;;;;;10.27;5.30;;;;;;;12.23;93.58;101908.91;6068637;23;20014;-69
2022/10/12 09:49:10;;;;;;;5.95;5.32;;;;;;;12.06;91.78;101901.69;6059433;23;20037;-69
2022/10/12 09:51:37;;;;;;;5.95;5.28;;;;;;;11.93;91.26;101893.44;6015902;23;20018;-69
2022/10/12 09:54:16;;;;;;;5.47;5.18;;;;;;;12.03;91.13;101896.53;6066777;23;20184;-69
2022/10/12 09:56:48;;;;;;;6.18;5.72;;;;;;;11.97;90.09;101893.25;6050280;23;20112;-69
2022/10/12 09:59:21;;;;;;;7.85;5.40;;;;;;;12.20;90.61;101882.72;6049555;23;20695;-69
2022/10/12 10:02:21;;;;;;;6.25;5.75;;;;;;;12.41;87.79;101884.50;6073541;23;20010;-69
2022/10/12 10:04:49;;;;;;;5.75;5.35;;;;;;;12.23;88.73;101883.47;6014885;23;20034;-70
2022/10/12 10:07:32;;;;;;;5.93;5.40;;;;;;;12.21;88.98;101884.41;6054346;23;20080;-69
2022/10/12 10:10:12;;;;;;;5.45;5.00;;;;;;;12.43;90.21;101884.41;6035232;23;20025;-69
2022/10/12 10:12:53;;;;;;;9.07;5.40;;;;;;;12.64;88.20;101888.78;6047712;23;20031;-69
2022/10/12 10:15:25;;;;;;;6.28;5.68;;;;;;;12.76;88.47;101884.78;6035272;23;20034;-69
2022/10/12 10:17:58;;;;;;;5.88;5.47;;;;;;;12.73;88.13;101883.16;6054897;23;20033;-69
2022/10/12 10:20:33;;;;;;;6.00;5.60;;;;;;;12.60;88.38;101839.81;6048904;23;20034;-69
2022/10/12 10:23:02;;;;;;;5.90;5.40;;;;;;;12.95;88.14;101892.78;6038303;23;20014;-69
2022/10/12 10:25:29;;;;;;;6.03;5.53;;;;;;;12.85;86.15;101841.38;6046605;23;20113;-70
2022/10/12 10:28:09;;;;;;;6.95;6.35;;;;;;;12.78;83.98;101838.16;6014004;23;20030;-69
2022/10/12 10:30:36;;;;;;;5.88;5.43;;;;;;;12.94;85.60;101896.34;6016818;23;20039;-69
2022/10/12 10:33:17;;;;;;;6.07;5.47;;;;;;;12.88;85.58;101896.59;5999417;23;20476;-69
2022/10/12 10:35:55;;;;;;;5.78;5.47;;;;;;;13.17;86.75;101897.97;5989821;23;20468;-70
2022/10/12 10:38:24;;;;;;;8.98;5.47;;;;;;;13.45;86.30;101891.50;6036296;23;20097;-70
2022/10/12 10:40:53;;;;;;;6.13;5.72;;;;;;;13.66;84.71;101892.31;6040685;23;20094;-69
2022/10/12 10:43:30;;;;;;;6.38;5.88;;;;;;;13.74;83.81;101882.25;6040764;23;20027;-69
2022/10/12 10:46:00;;;;;;;11.68;7.60;;;;;;;13.83;84.05;101887.13;6037942;23;20018;-69
2022/10/12 10:48:30;;;;;;;7.50;6.75;;;;;;;14.09;83.69;101885.00;6031599;23;20034;-69
2022/10/12 10:51:02;;;;;;;7.03;6.35;;;;;;;14.13;81.46;101890.09;6011338;23;20078;-69
2022/10/12 10:53:50;;;;;;;10.90;6.93;;;;;;;14.35;81.39;101900.47;6032025;23;20029;-69
2022/10/12 10:56:22;;;;;;;7.05;6.35;;;;;;;14.56;80.45;101889.78;6045311;23;20478;-69
2022/10/12 10:58:54;;;;;;;10.25;6.88;;;;;;;14.49;80.92;101885.69;6009534;23;20085;-70
2022/10/12 11:01:51;;;;;;;7.85;6.65;;;;;;;14.67;80.79;101879.56;6016903;23;20042;-69
2022/10/12 11:04:28;;;;;;;7.38;6.68;;;;;;;14.61;77.91;101860.50;6037449;23;20010;-69
2022/10/12 11:07:00;;;;;;;9.75;6.40;;;;;;;14.46;78.34;101830.41;6006528;23;20606;-69
2022/10/12 11:09:29;;;;;;;7.80;7.00;;;;;;;14.33;79.53;101857.44;6032646;23;20080;-69
2022/10/12 11:12:01;;;;;;;7.25;6.55;;;;;;;13.60;80.64;101706.16;6008466;23;20094;-69
2022/10/12 11:14:35;;;;;;;7.68;6.95;;;;;;;14.73;78.20;101859.88;6035955;23;20050;-69
2022/10/12 11:17:26;;;;;;;8.00;7.20;;;;;;;14.95;77.71;101862.25;6034556;23;20018;-69
2022/10/12 11:20:17;;;;;;;12.07;6.40;;;;;;;15.16;77.84;101869.06;6039306;23;20026;-68
2022/10/12 11:23:11;;;;;;;7.72;6.97;;;;;;;15.25;77.61;101858.94;6034220;23;20109;-68
2022/10/12 11:25:47;;;;;;;7.28;6.68;;;;;;;15.52;76.88;101859.25;5985447;23;20034;-68
2022/10/12 11:28:15;;;;;;;6.68;6.00;;;;;;;15.72;75.66;101853.75;6036112;23;20100;-69
2022/10/12 11:30:46;;;;;;;7.15;6.50;;;;;;;15.63;75.09;101838.34;6076528;23;20088;-69
2022/10/12 11:33:25;;;;;;;6.45;6.00;;;;;;;15.62;75.85;101843.72;6035811;23;20087;-69
2022/10/12 11:35:53;;;;;;;11.07;6.40;;;;;;;15.73;74.34;101844.00;6041029;23;20034;-69
2022/10/12 11:38:27;;;;;;;10.07;7.15;;;;;;;14.43;72.88;101630.66;6071095;23;20022;-69